DLH6CC EDDF-EDXW
Flight info
| Callsign | DLH6CC |
|---|---|
| Flight time | 0h 53m |
| Altitude | 37000 |
| Route | MARUN6E/07C MARUN Y150 TOLGI DCT ELSOB Y348 OMWEG DCT BADOS DCT OLDIP |
| Aircraft | A319/M-SDE3FGHIRWY/LB1 |
Departure
| Time | 2026-05-08 16:15 |
|---|---|
| Airport | Frankfurt Main Airport (EDDF) |
Arrival
| Time | 2026-05-08 17:09 |
|---|---|
| Airport | Westerland Sylt Airport (EDXW) |
| Time | Latitude | Longitude | Altitude | Speed | Heading |
|---|---|---|---|---|---|
| 2026-05-08 15:36 | 50.04581 | 8.56622 | 358 ft | 0 kts | 114° |
| 2026-05-08 16:01 | 50.04581 | 8.56621 | 356 ft | 1 kts | 114° |
| 2026-05-08 16:01 | 50.04591 | 8.56586 | 364 ft | 4 kts | 117° |
| 2026-05-08 16:01 | 50.04604 | 8.56550 | 365 ft | 4 kts | 123° |
| 2026-05-08 16:01 | 50.04620 | 8.56517 | 359 ft | 4 kts | 141° |
| 2026-05-08 16:02 | 50.04640 | 8.56504 | 363 ft | 1 kts | 204° |
| 2026-05-08 16:02 | 50.04645 | 8.56508 | 360 ft | 0 kts | 204° |
| 2026-05-08 16:05 | 50.04643 | 8.56506 | 363 ft | 1 kts | 204° |
| 2026-05-08 16:05 | 50.04635 | 8.56501 | 364 ft | 2 kts | 204° |
| 2026-05-08 16:06 | 50.04619 | 8.56489 | 360 ft | 4 kts | 204° |
| 2026-05-08 16:06 | 50.04588 | 8.56467 | 357 ft | 5 kts | 204° |
| 2026-05-08 16:06 | 50.04551 | 8.56441 | 359 ft | 6 kts | 205° |
| 2026-05-08 16:06 | 50.04516 | 8.56382 | 359 ft | 9 kts | 247° |
| 2026-05-08 16:07 | 50.04493 | 8.56286 | 358 ft | 10 kts | 250° |
| 2026-05-08 16:07 | 50.04470 | 8.56185 | 361 ft | 10 kts | 250° |
| 2026-05-08 16:07 | 50.04448 | 8.56093 | 359 ft | 6 kts | 250° |
| 2026-05-08 16:07 | 50.04444 | 8.56076 | 357 ft | 1 kts | 250° |
| 2026-05-08 16:08 | 50.04437 | 8.56049 | 359 ft | 4 kts | 250° |
| 2026-05-08 16:08 | 50.04423 | 8.55989 | 359 ft | 8 kts | 248° |
| 2026-05-08 16:08 | 50.04378 | 8.55918 | 358 ft | 10 kts | 193° |
| 2026-05-08 16:08 | 50.04303 | 8.55948 | 359 ft | 12 kts | 161° |
| 2026-05-08 16:09 | 50.04221 | 8.55919 | 353 ft | 13 kts | 209° |
| 2026-05-08 16:09 | 50.04131 | 8.55950 | 352 ft | 14 kts | 159° |
| 2026-05-08 16:09 | 50.04042 | 8.55926 | 355 ft | 14 kts | 238° |
| 2026-05-08 16:09 | 50.04013 | 8.55793 | 351 ft | 13 kts | 250° |
| 2026-05-08 16:10 | 50.03978 | 8.55654 | 352 ft | 14 kts | 249° |
| 2026-05-08 16:10 | 50.03945 | 8.55507 | 349 ft | 14 kts | 250° |
| 2026-05-08 16:10 | 50.03910 | 8.55369 | 349 ft | 14 kts | 248° |
| 2026-05-08 16:10 | 50.03875 | 8.55224 | 355 ft | 14 kts | 250° |
| 2026-05-08 16:11 | 50.03844 | 8.55084 | 352 ft | 10 kts | 251° |
| 2026-05-08 16:11 | 50.03818 | 8.54976 | 350 ft | 11 kts | 249° |
| 2026-05-08 16:11 | 50.03789 | 8.54859 | 351 ft | 12 kts | 250° |
| 2026-05-08 16:11 | 50.03758 | 8.54727 | 352 ft | 13 kts | 249° |
| 2026-05-08 16:12 | 50.03723 | 8.54586 | 345 ft | 15 kts | 249° |
| 2026-05-08 16:12 | 50.03685 | 8.54425 | 348 ft | 17 kts | 250° |
| 2026-05-08 16:12 | 50.03645 | 8.54306 | 348 ft | 12 kts | 207° |
| 2026-05-08 16:12 | 50.03577 | 8.54328 | 347 ft | 6 kts | 159° |
| 2026-05-08 16:13 | 50.03572 | 8.54331 | 345 ft | 0 kts | 159° |
| 2026-05-08 16:13 | 50.03564 | 8.54336 | 343 ft | 3 kts | 159° |
| 2026-05-08 16:13 | 50.03536 | 8.54352 | 344 ft | 5 kts | 159° |
| 2026-05-08 16:13 | 50.03512 | 8.54367 | 346 ft | 6 kts | 159° |
| 2026-05-08 16:14 | 50.03484 | 8.54389 | 348 ft | 0 kts | 130° |
| 2026-05-08 16:14 | 50.03488 | 8.54410 | 345 ft | 0 kts | 72° |
| 2026-05-08 16:15 | 50.03513 | 8.54518 | 347 ft | 40 kts | 69° |
| 2026-05-08 16:15 | 50.03699 | 8.55299 | 350 ft | 111 kts | 70° |
| 2026-05-08 16:15 | 50.04038 | 8.56712 | 390 ft | 161 kts | 70° |
| 2026-05-08 16:15 | 50.04425 | 8.58346 | 1010 ft | 162 kts | 68° |
| 2026-05-08 16:16 | 50.04820 | 8.59996 | 1760 ft | 163 kts | 68° |
| 2026-05-08 16:16 | 50.05232 | 8.61673 | 2360 ft | 174 kts | 66° |
| 2026-05-08 16:16 | 50.05989 | 8.63239 | 2779 ft | 193 kts | 32° |
| 2026-05-08 16:16 | 50.07369 | 8.63672 | 3196 ft | 215 kts | 355° |
| 2026-05-08 16:17 | 50.08861 | 8.63497 | 4155 ft | 216 kts | 356° |
| 2026-05-08 16:17 | 50.09890 | 8.63408 | 4661 ft | 222 kts | 356° |
| 2026-05-08 16:17 | 50.12049 | 8.63252 | 5264 ft | 250 kts | 357° |
| 2026-05-08 16:17 | 50.13857 | 8.63133 | 5911 ft | 267 kts | 357° |
| 2026-05-08 16:18 | 50.15738 | 8.63012 | 6790 ft | 273 kts | 356° |
| 2026-05-08 16:18 | 50.17652 | 8.62888 | 7682 ft | 278 kts | 356° |
| 2026-05-08 16:18 | 50.19602 | 8.62761 | 8593 ft | 282 kts | 356° |
| 2026-05-08 16:18 | 50.21559 | 8.62632 | 9498 ft | 287 kts | 356° |
| 2026-05-08 16:19 | 50.23568 | 8.62499 | 10307 ft | 295 kts | 355° |
| 2026-05-08 16:19 | 50.25707 | 8.62351 | 10618 ft | 319 kts | 355° |
| 2026-05-08 16:19 | 50.28003 | 8.62186 | 10939 ft | 340 kts | 356° |
| 2026-05-08 16:19 | 50.30404 | 8.62017 | 11585 ft | 348 kts | 356° |
| 2026-05-08 16:20 | 50.32842 | 8.61854 | 12366 ft | 353 kts | 356° |
| 2026-05-08 16:20 | 50.35310 | 8.61768 | 13173 ft | 356 kts | 358° |
| 2026-05-08 16:20 | 50.37802 | 8.61765 | 13953 ft | 360 kts | 359° |
| 2026-05-08 16:20 | 50.40325 | 8.61800 | 14648 ft | 364 kts | 359° |
| 2026-05-08 16:21 | 50.42871 | 8.61840 | 15332 ft | 368 kts | 359° |
| 2026-05-08 16:21 | 50.45443 | 8.61999 | 16003 ft | 372 kts | 4° |
| 2026-05-08 16:21 | 50.48036 | 8.62392 | 16689 ft | 376 kts | 4° |
| 2026-05-08 16:21 | 50.50651 | 8.62770 | 17366 ft | 379 kts | 4° |
| 2026-05-08 16:22 | 50.53260 | 8.63139 | 18031 ft | 383 kts | 4° |
| 2026-05-08 16:22 | 50.55932 | 8.63514 | 18662 ft | 387 kts | 4° |
| 2026-05-08 16:22 | 50.58623 | 8.63890 | 19245 ft | 390 kts | 4° |
| 2026-05-08 16:22 | 50.61342 | 8.64269 | 19840 ft | 393 kts | 3° |
| 2026-05-08 16:23 | 50.64084 | 8.64649 | 20426 ft | 397 kts | 3° |
| 2026-05-08 16:23 | 50.66845 | 8.65034 | 21012 ft | 400 kts | 3° |
| 2026-05-08 16:23 | 50.69630 | 8.65429 | 21585 ft | 404 kts | 4° |
| 2026-05-08 16:23 | 50.72441 | 8.65831 | 22137 ft | 407 kts | 3° |
| 2026-05-08 16:24 | 50.75275 | 8.66233 | 22675 ft | 411 kts | 4° |
| 2026-05-08 16:24 | 50.78100 | 8.67033 | 23198 ft | 416 kts | 14° |
| 2026-05-08 16:24 | 50.80823 | 8.68681 | 23697 ft | 421 kts | 25° |
| 2026-05-08 16:24 | 50.83324 | 8.71139 | 24129 ft | 426 kts | 37° |
| 2026-05-08 16:25 | 50.85502 | 8.74338 | 24562 ft | 430 kts | 48° |
| 2026-05-08 16:25 | 50.87354 | 8.78079 | 25008 ft | 433 kts | 52° |
| 2026-05-08 16:25 | 50.89180 | 8.81895 | 25450 ft | 435 kts | 52° |
| 2026-05-08 16:25 | 50.91012 | 8.85726 | 25883 ft | 437 kts | 52° |
| 2026-05-08 16:26 | 50.92853 | 8.89583 | 26316 ft | 440 kts | 52° |
| 2026-05-08 16:26 | 50.94706 | 8.93467 | 26746 ft | 442 kts | 52° |
| 2026-05-08 16:26 | 50.96563 | 8.97363 | 27168 ft | 444 kts | 52° |
| 2026-05-08 16:26 | 50.98435 | 9.01290 | 27587 ft | 447 kts | 52° |
| 2026-05-08 16:27 | 51.00312 | 9.05232 | 27993 ft | 449 kts | 52° |
| 2026-05-08 16:27 | 51.02174 | 9.09152 | 28391 ft | 452 kts | 52° |
| 2026-05-08 16:27 | 51.04065 | 9.13144 | 28783 ft | 454 kts | 52° |
| 2026-05-08 16:27 | 51.05966 | 9.17167 | 29150 ft | 456 kts | 52° |
| 2026-05-08 16:28 | 51.07958 | 9.21117 | 29509 ft | 458 kts | 46° |
| 2026-05-08 16:28 | 51.10290 | 9.24555 | 29868 ft | 459 kts | 37° |
| 2026-05-08 16:28 | 51.12948 | 9.27370 | 30213 ft | 460 kts | 27° |
| 2026-05-08 16:28 | 51.15857 | 9.29482 | 30499 ft | 460 kts | 18° |
| 2026-05-08 16:29 | 51.18934 | 9.30856 | 30815 ft | 459 kts | 10° |
| 2026-05-08 16:29 | 51.22055 | 9.31919 | 31237 ft | 458 kts | 10° |
| 2026-05-08 16:29 | 51.25175 | 9.32994 | 31645 ft | 458 kts | 11° |
| 2026-05-08 16:29 | 51.28288 | 9.34077 | 32048 ft | 457 kts | 11° |
| 2026-05-08 16:30 | 51.31395 | 9.35165 | 32439 ft | 457 kts | 11° |
| 2026-05-08 16:30 | 51.34491 | 9.36253 | 32845 ft | 456 kts | 11° |
| 2026-05-08 16:30 | 51.37590 | 9.37341 | 33251 ft | 455 kts | 11° |
| 2026-05-08 16:30 | 51.40690 | 9.38422 | 33655 ft | 455 kts | 11° |
| 2026-05-08 16:31 | 51.43785 | 9.39499 | 34060 ft | 454 kts | 11° |
| 2026-05-08 16:31 | 51.46864 | 9.40574 | 34407 ft | 454 kts | 11° |
| 2026-05-08 16:31 | 51.49954 | 9.41657 | 34728 ft | 454 kts | 11° |
| 2026-05-08 16:31 | 51.53045 | 9.42744 | 35041 ft | 454 kts | 11° |
| 2026-05-08 16:32 | 51.56134 | 9.43830 | 35335 ft | 455 kts | 11° |
| 2026-05-08 16:32 | 51.59227 | 9.44918 | 35613 ft | 455 kts | 11° |
| 2026-05-08 16:32 | 51.62324 | 9.46007 | 35886 ft | 456 kts | 11° |
| 2026-05-08 16:32 | 51.65425 | 9.47095 | 36150 ft | 456 kts | 11° |
| 2026-05-08 16:33 | 51.68529 | 9.48187 | 36407 ft | 457 kts | 11° |
| 2026-05-08 16:33 | 51.71640 | 9.49284 | 36663 ft | 457 kts | 11° |
| 2026-05-08 16:33 | 51.74750 | 9.50384 | 36905 ft | 458 kts | 11° |
| 2026-05-08 16:33 | 51.77863 | 9.51490 | 37107 ft | 459 kts | 11° |
| 2026-05-08 16:34 | 51.84132 | 9.53310 | 37166 ft | 457 kts | 1° |
| 2026-05-08 16:34 | 51.90474 | 9.53488 | 37166 ft | 456 kts | 359° |
| 2026-05-08 16:35 | 51.96814 | 9.53643 | 37170 ft | 456 kts | 359° |
| 2026-05-08 16:35 | 52.03160 | 9.53815 | 37167 ft | 456 kts | 359° |
| 2026-05-08 16:36 | 52.09501 | 9.53968 | 37172 ft | 456 kts | 359° |
| 2026-05-08 16:36 | 52.15850 | 9.54120 | 37172 ft | 456 kts | 359° |
| 2026-05-08 16:37 | 52.22199 | 9.54276 | 37182 ft | 456 kts | 359° |
| 2026-05-08 16:37 | 52.28547 | 9.54424 | 37180 ft | 456 kts | 359° |
| 2026-05-08 16:38 | 52.34892 | 9.54576 | 37183 ft | 456 kts | 359° |
| 2026-05-08 16:38 | 52.41234 | 9.54741 | 37184 ft | 456 kts | 359° |
| 2026-05-08 16:39 | 52.47576 | 9.54906 | 37185 ft | 456 kts | 359° |
| 2026-05-08 16:39 | 52.53913 | 9.55066 | 37184 ft | 456 kts | 359° |
| 2026-05-08 16:40 | 52.60225 | 9.55229 | 37182 ft | 456 kts | 359° |
| 2026-05-08 16:40 | 52.66569 | 9.55395 | 37180 ft | 456 kts | 359° |
| 2026-05-08 16:41 | 52.72914 | 9.55547 | 37182 ft | 456 kts | 359° |
| 2026-05-08 16:42 | 52.81366 | 9.55773 | 37180 ft | 456 kts | 359° |
| 2026-05-08 16:42 | 52.87708 | 9.55939 | 37183 ft | 456 kts | 359° |
| 2026-05-08 16:43 | 52.94055 | 9.56083 | 37185 ft | 456 kts | 359° |
| 2026-05-08 16:43 | 53.00403 | 9.56239 | 37182 ft | 456 kts | 359° |
| 2026-05-08 16:44 | 53.06753 | 9.56411 | 37183 ft | 456 kts | 359° |
| 2026-05-08 16:44 | 53.13104 | 9.56580 | 37188 ft | 457 kts | 359° |
| 2026-05-08 16:45 | 53.19500 | 9.56754 | 37185 ft | 457 kts | 359° |
| 2026-05-08 16:45 | 53.25818 | 9.56920 | 37188 ft | 457 kts | 359° |
| 2026-05-08 16:46 | 53.32178 | 9.57078 | 37187 ft | 456 kts | 359° |
| 2026-05-08 16:46 | 53.38527 | 9.57232 | 37187 ft | 456 kts | 359° |
| 2026-05-08 16:47 | 53.44878 | 9.57401 | 37185 ft | 456 kts | 359° |
| 2026-05-08 16:47 | 53.51228 | 9.57569 | 37185 ft | 456 kts | 359° |
| 2026-05-08 16:48 | 53.57577 | 9.57740 | 37182 ft | 456 kts | 359° |
| 2026-05-08 16:48 | 53.63922 | 9.57909 | 37189 ft | 456 kts | 358° |
| 2026-05-08 16:49 | 53.70215 | 9.56812 | 37146 ft | 454 kts | 351° |
| 2026-05-08 16:49 | 53.73356 | 9.56076 | 36759 ft | 454 kts | 351° |
| 2026-05-08 16:49 | 53.76459 | 9.55351 | 35910 ft | 458 kts | 351° |
| 2026-05-08 16:49 | 53.79621 | 9.54612 | 35024 ft | 462 kts | 352° |
| 2026-05-08 16:50 | 53.82796 | 9.53870 | 34417 ft | 459 kts | 352° |
| 2026-05-08 16:50 | 53.85946 | 9.53134 | 33446 ft | 455 kts | 352° |
| 2026-05-08 16:50 | 53.89094 | 9.52399 | 32086 ft | 456 kts | 352° |
| 2026-05-08 16:50 | 53.92219 | 9.51666 | 31067 ft | 450 kts | 352° |
| 2026-05-08 16:51 | 53.95300 | 9.50944 | 29936 ft | 446 kts | 352° |
| 2026-05-08 16:51 | 53.98340 | 9.50084 | 29145 ft | 433 kts | 346° |
| 2026-05-08 16:51 | 54.01151 | 9.48610 | 28620 ft | 416 kts | 338° |
| 2026-05-08 16:51 | 54.03744 | 9.46524 | 27978 ft | 410 kts | 330° |
| 2026-05-08 16:52 | 54.06206 | 9.44091 | 27350 ft | 407 kts | 329° |
| 2026-05-08 16:52 | 54.08645 | 9.41678 | 26731 ft | 403 kts | 329° |
| 2026-05-08 16:52 | 54.11070 | 9.39281 | 26131 ft | 402 kts | 329° |
| 2026-05-08 16:52 | 54.13490 | 9.36894 | 25523 ft | 400 kts | 329° |
| 2026-05-08 16:53 | 54.18299 | 9.32160 | 24338 ft | 397 kts | 329° |
| 2026-05-08 16:53 | 54.20687 | 9.29802 | 23747 ft | 396 kts | 329° |
| 2026-05-08 16:53 | 54.23065 | 9.27442 | 23109 ft | 394 kts | 329° |
| 2026-05-08 16:54 | 54.25432 | 9.25081 | 22568 ft | 391 kts | 329° |
| 2026-05-08 16:54 | 54.27773 | 9.22745 | 22041 ft | 388 kts | 329° |
| 2026-05-08 16:54 | 54.30104 | 9.20420 | 21545 ft | 386 kts | 329° |
| 2026-05-08 16:54 | 54.32413 | 9.18117 | 21049 ft | 383 kts | 329° |
| 2026-05-08 16:55 | 54.34711 | 9.15825 | 20574 ft | 380 kts | 329° |
| 2026-05-08 16:55 | 54.36912 | 9.13370 | 20121 ft | 376 kts | 321° |
| 2026-05-08 16:55 | 54.38837 | 9.10367 | 19652 ft | 372 kts | 314° |
| 2026-05-08 16:55 | 54.40646 | 9.07210 | 19202 ft | 369 kts | 314° |
| 2026-05-08 16:56 | 54.42445 | 9.04083 | 18742 ft | 367 kts | 314° |
| 2026-05-08 16:56 | 54.44235 | 9.00987 | 18244 ft | 364 kts | 314° |
| 2026-05-08 16:56 | 54.46014 | 8.97912 | 17756 ft | 361 kts | 314° |
| 2026-05-08 16:56 | 54.47773 | 8.94858 | 17283 ft | 357 kts | 314° |
| 2026-05-08 16:57 | 54.49513 | 8.91826 | 16805 ft | 354 kts | 314° |
| 2026-05-08 16:57 | 54.51216 | 8.88854 | 16324 ft | 352 kts | 314° |
| 2026-05-08 16:57 | 54.52931 | 8.85862 | 15851 ft | 350 kts | 314° |
| 2026-05-08 16:57 | 54.54635 | 8.82884 | 15363 ft | 348 kts | 314° |
| 2026-05-08 16:58 | 54.56325 | 8.79923 | 14888 ft | 347 kts | 314° |
| 2026-05-08 16:58 | 54.58013 | 8.76957 | 14404 ft | 345 kts | 314° |
| 2026-05-08 16:58 | 54.59695 | 8.73997 | 13901 ft | 344 kts | 314° |
| 2026-05-08 16:58 | 54.61369 | 8.71048 | 13381 ft | 343 kts | 313° |
| 2026-05-08 16:59 | 54.62888 | 8.67909 | 12886 ft | 339 kts | 308° |
| 2026-05-08 16:59 | 54.64326 | 8.64758 | 12393 ft | 337 kts | 308° |
| 2026-05-08 16:59 | 54.65772 | 8.61592 | 11894 ft | 334 kts | 308° |
| 2026-05-08 16:59 | 54.67207 | 8.58449 | 11390 ft | 332 kts | 308° |
| 2026-05-08 17:00 | 54.68635 | 8.55314 | 10910 ft | 330 kts | 308° |
| 2026-05-08 17:00 | 54.70024 | 8.52261 | 10777 ft | 317 kts | 308° |
| 2026-05-08 17:00 | 54.71360 | 8.49321 | 10651 ft | 305 kts | 308° |
| 2026-05-08 17:00 | 54.72648 | 8.46488 | 10521 ft | 294 kts | 308° |
| 2026-05-08 17:01 | 54.73896 | 8.43742 | 10295 ft | 287 kts | 308° |
| 2026-05-08 17:01 | 54.75123 | 8.41031 | 10100 ft | 285 kts | 308° |
| 2026-05-08 17:01 | 54.76341 | 8.38327 | 9971 ft | 284 kts | 307° |
| 2026-05-08 17:01 | 54.77558 | 8.35622 | 9697 ft | 286 kts | 307° |
| 2026-05-08 17:02 | 54.78783 | 8.32902 | 9208 ft | 286 kts | 308° |
| 2026-05-08 17:02 | 54.80099 | 8.30316 | 8739 ft | 287 kts | 317° |
| 2026-05-08 17:02 | 54.81699 | 8.28242 | 8288 ft | 287 kts | 325° |
| 2026-05-08 17:02 | 54.83332 | 8.26247 | 7870 ft | 285 kts | 324° |
| 2026-05-08 17:03 | 54.84958 | 8.24234 | 7437 ft | 285 kts | 324° |
| 2026-05-08 17:03 | 54.86559 | 8.22243 | 7024 ft | 283 kts | 324° |
| 2026-05-08 17:03 | 54.88163 | 8.20245 | 6616 ft | 283 kts | 324° |
| 2026-05-08 17:03 | 54.89758 | 8.18261 | 6177 ft | 281 kts | 324° |
| 2026-05-08 17:04 | 54.91343 | 8.16282 | 5736 ft | 280 kts | 324° |
| 2026-05-08 17:04 | 54.92906 | 8.14328 | 5190 ft | 282 kts | 324° |
| 2026-05-08 17:04 | 54.94480 | 8.12361 | 4930 ft | 273 kts | 324° |
| 2026-05-08 17:04 | 54.95988 | 8.10491 | 4799 ft | 260 kts | 326° |
| 2026-05-08 17:05 | 54.97623 | 8.09467 | 4678 ft | 245 kts | 359° |
| 2026-05-08 17:05 | 54.99213 | 8.10133 | 4412 ft | 236 kts | 34° |
| 2026-05-08 17:05 | 55.00331 | 8.12159 | 4021 ft | 232 kts | 57° |
| 2026-05-08 17:05 | 55.01268 | 8.14453 | 3656 ft | 233 kts | 57° |
| 2026-05-08 17:06 | 55.02118 | 8.16872 | 3115 ft | 237 kts | 74° |
| 2026-05-08 17:06 | 55.02118 | 8.19633 | 2697 ft | 225 kts | 112° |
| 2026-05-08 17:06 | 55.01224 | 8.21734 | 2380 ft | 214 kts | 144° |
| 2026-05-08 17:06 | 55.00033 | 8.23206 | 2074 ft | 207 kts | 146° |
| 2026-05-08 17:07 | 54.98876 | 8.24636 | 1772 ft | 201 kts | 145° |
| 2026-05-08 17:07 | 54.97763 | 8.26020 | 1505 ft | 194 kts | 145° |
| 2026-05-08 17:07 | 54.96670 | 8.27377 | 1212 ft | 191 kts | 144° |
| 2026-05-08 17:07 | 54.95620 | 8.28677 | 925 ft | 178 kts | 143° |
| 2026-05-08 17:08 | 54.94668 | 8.29857 | 696 ft | 159 kts | 142° |
| 2026-05-08 17:08 | 54.93818 | 8.30915 | 500 ft | 146 kts | 142° |
| 2026-05-08 17:08 | 54.93023 | 8.31915 | 335 ft | 136 kts | 141° |
| 2026-05-08 17:08 | 54.92274 | 8.32857 | 149 ft | 130 kts | 139° |
| 2026-05-08 17:09 | 54.91559 | 8.33757 | 37 ft | 119 kts | 143° |
| 2026-05-08 17:09 | 54.91094 | 8.34331 | 38 ft | 39 kts | 144° |
| 2026-05-08 17:09 | 54.90934 | 8.34530 | 36 ft | 27 kts | 145° |
| 2026-05-08 17:09 | 54.90783 | 8.34708 | 35 ft | 26 kts | 146° |
| 2026-05-08 17:10 | 54.90659 | 8.34863 | 35 ft | 19 kts | 142° |
| 2026-05-08 17:10 | 54.90606 | 8.34926 | 36 ft | 7 kts | 160° |
| 2026-05-08 17:10 | 54.90564 | 8.34884 | 35 ft | 8 kts | 224° |
| 2026-05-08 17:10 | 54.90520 | 8.34811 | 35 ft | 9 kts | 222° |
| 2026-05-08 17:11 | 54.90470 | 8.34731 | 35 ft | 10 kts | 224° |
| 2026-05-08 17:11 | 54.90418 | 8.34648 | 35 ft | 11 kts | 222° |
| 2026-05-08 17:11 | 54.90362 | 8.34557 | 35 ft | 11 kts | 223° |
| 2026-05-08 17:11 | 54.90300 | 8.34441 | 35 ft | 14 kts | 233° |
| 2026-05-08 17:12 | 54.90249 | 8.34253 | 34 ft | 20 kts | 255° |
| 2026-05-08 17:12 | 54.90239 | 8.34001 | 33 ft | 21 kts | 276° |
| 2026-05-08 17:12 | 54.90258 | 8.33759 | 33 ft | 20 kts | 279° |
| 2026-05-08 17:12 | 54.90313 | 8.33511 | 32 ft | 24 kts | 303° |
| 2026-05-08 17:13 | 54.90437 | 8.33312 | 34 ft | 19 kts | 331° |
| 2026-05-08 17:13 | 54.90566 | 8.33249 | 34 ft | 19 kts | 354° |
| 2026-05-08 17:13 | 54.90677 | 8.33233 | 35 ft | 16 kts | 356° |
| 2026-05-08 17:13 | 54.90778 | 8.33221 | 33 ft | 14 kts | 352° |
| 2026-05-08 17:14 | 54.90876 | 8.33175 | 35 ft | 15 kts | 336° |
| 2026-05-08 17:14 | 54.90967 | 8.33110 | 34 ft | 14 kts | 9° |
| 2026-05-08 17:14 | 54.91058 | 8.33177 | 34 ft | 15 kts | 12° |
| 2026-05-08 17:14 | 54.91164 | 8.33181 | 35 ft | 16 kts | 359° |
| 2026-05-08 17:15 | 54.91251 | 8.33181 | 31 ft | 11 kts | 1° |
| 2026-05-08 17:15 | 54.91318 | 8.33229 | 29 ft | 8 kts | 13° |
| 2026-05-08 17:15 | 54.91348 | 8.33210 | 29 ft | 4 kts | 315° |
| 2026-05-08 17:15 | 54.91351 | 8.33150 | 29 ft | 5 kts | 268° |
| 2026-05-08 17:16 | 54.91351 | 8.33141 | 29 ft | 0 kts | 268° |